sensor_id;sensor_type;location;lat;lon;timestamp;P1;durP1;ratioP1;P2;durP2;ratioP2
70320;SDS011;61127;55.826;37.046;2022-08-11T00:02:32;2.88;;;1.40;;
70320;SDS011;61127;55.826;37.046;2022-08-11T00:05:03;5.13;;;1.10;;
70320;SDS011;61127;55.826;37.046;2022-08-11T00:07:34;2.70;;;1.20;;
70320;SDS011;61127;55.826;37.046;2022-08-11T00:10:09;2.20;;;1.20;;
70320;SDS011;61127;55.826;37.046;2022-08-11T00:12:41;3.55;;;1.23;;
70320;SDS011;61127;55.826;37.046;2022-08-11T00:15:09;1.90;;;1.00;;
70320;SDS011;61127;55.826;37.046;2022-08-11T00:17:36;2.03;;;1.10;;
70320;SDS011;61127;55.826;37.046;2022-08-11T00:20:05;2.78;;;1.20;;
70320;SDS011;61127;55.826;37.046;2022-08-11T00:22:38;5.10;;;1.30;;
70320;SDS011;61127;55.826;37.046;2022-08-11T00:25:09;4.07;;;1.30;;
70320;SDS011;61127;55.826;37.046;2022-08-11T00:27:41;3.17;;;1.10;;
70320;SDS011;61127;55.826;37.046;2022-08-11T00:30:08;2.10;;;1.30;;
70320;SDS011;61127;55.826;37.046;2022-08-11T00:32:37;4.75;;;1.40;;
70320;SDS011;61127;55.826;37.046;2022-08-11T00:35:06;2.73;;;1.10;;
70320;SDS011;61127;55.826;37.046;2022-08-11T00:37:36;6.80;;;1.25;;
70320;SDS011;61127;55.826;37.046;2022-08-11T00:40:03;2.47;;;1.15;;
70320;SDS011;61127;55.826;37.046;2022-08-11T00:42:50;4.10;;;1.30;;
70320;SDS011;61127;55.826;37.046;2022-08-11T00:45:28;3.17;;;1.45;;
70320;SDS011;61127;55.826;37.046;2022-08-11T00:48:10;4.80;;;1.40;;
70320;SDS011;61127;55.826;37.046;2022-08-11T00:51:01;3.17;;;1.30;;
70320;SDS011;61127;55.826;37.046;2022-08-11T01:02:48;5.10;;;1.40;;
70320;SDS011;61127;55.826;37.046;2022-08-11T01:24:50;5.30;;;1.70;;
70320;SDS011;61127;55.826;37.046;2022-08-11T01:27:44;3.50;;;1.60;;
70320;SDS011;61127;55.826;37.046;2022-08-11T01:33:52;5.20;;;1.83;;
70320;SDS011;61127;55.826;37.046;2022-08-11T01:36:41;3.30;;;1.90;;
70320;SDS011;61127;55.826;37.046;2022-08-11T01:56:22;2.83;;;1.70;;
70320;SDS011;61127;55.826;37.046;2022-08-11T02:06:43;3.65;;;1.92;;
70320;SDS011;61127;55.826;37.046;2022-08-11T02:15:07;6.50;;;2.80;;
70320;SDS011;61127;55.826;37.046;2022-08-11T02:23:32;5.00;;;2.47;;
70320;SDS011;61127;55.826;37.046;2022-08-11T02:28:43;5.60;;;2.60;;
70320;SDS011;61127;55.826;37.046;2022-08-11T02:37:16;6.95;;;3.83;;
70320;SDS011;61127;55.826;37.046;2022-08-11T02:42:39;9.07;;;4.25;;
70320;SDS011;61127;55.826;37.046;2022-08-11T02:54:27;8.43;;;3.67;;
70320;SDS011;61127;55.826;37.046;2022-08-11T02:57:18;7.47;;;3.30;;
70320;SDS011;61127;55.826;37.046;2022-08-11T02:59:50;7.07;;;3.78;;
70320;SDS011;61127;55.826;37.046;2022-08-11T03:15:06;8.10;;;3.25;;
70320;SDS011;61127;55.826;37.046;2022-08-11T03:17:56;4.57;;;2.90;;
70320;SDS011;61127;55.826;37.046;2022-08-11T03:20:56;5.57;;;3.10;;
70320;SDS011;61127;55.826;37.046;2022-08-11T03:23:40;5.60;;;2.58;;
70320;SDS011;61127;55.826;37.046;2022-08-11T03:26:14;7.25;;;2.50;;
70320;SDS011;61127;55.826;37.046;2022-08-11T03:28:58;4.90;;;2.90;;
70320;SDS011;61127;55.826;37.046;2022-08-11T03:31:34;4.80;;;2.30;;
70320;SDS011;61127;55.826;37.046;2022-08-11T03:34:14;6.50;;;2.40;;
70320;SDS011;61127;55.826;37.046;2022-08-11T03:39:56;3.90;;;2.05;;
70320;SDS011;61127;55.826;37.046;2022-08-11T03:42:57;3.97;;;2.20;;
70320;SDS011;61127;55.826;37.046;2022-08-11T03:45:33;5.50;;;2.30;;
70320;SDS011;61127;55.826;37.046;2022-08-11T03:51:02;3.75;;;2.28;;
70320;SDS011;61127;55.826;37.046;2022-08-11T04:02:00;5.82;;;2.20;;
70320;SDS011;61127;55.826;37.046;2022-08-11T04:05:17;5.80;;;2.17;;
70320;SDS011;61127;55.826;37.046;2022-08-11T04:42:26;2.30;;;1.50;;
70320;SDS011;61127;55.826;37.046;2022-08-11T04:48:17;3.55;;;1.73;;
70320;SDS011;61127;55.826;37.046;2022-08-11T04:51:29;3.28;;;1.50;;
70320;SDS011;61127;55.826;37.046;2022-08-11T04:55:01;3.42;;;2.00;;
70320;SDS011;61127;55.826;37.046;2022-08-11T05:00:59;5.13;;;1.90;;
70320;SDS011;61127;55.826;37.046;2022-08-11T05:04:06;2.67;;;1.75;;
70320;SDS011;61127;55.826;37.046;2022-08-11T05:13:08;3.20;;;1.53;;
70320;SDS011;61127;55.826;37.046;2022-08-11T05:15:55;3.22;;;1.70;;
70320;SDS011;61127;55.826;37.046;2022-08-11T05:18:47;3.03;;;1.60;;
70320;SDS011;61127;55.826;37.046;2022-08-11T05:21:35;4.32;;;1.45;;
70320;SDS011;61127;55.826;37.046;2022-08-11T05:24:22;3.13;;;1.58;;
70320;SDS011;61127;55.826;37.046;2022-08-11T05:27:09;3.33;;;1.57;;
70320;SDS011;61127;55.826;37.046;2022-08-11T05:30:07;6.13;;;1.45;;
70320;SDS011;61127;55.826;37.046;2022-08-11T05:32:56;3.85;;;1.65;;
70320;SDS011;61127;55.826;37.046;2022-08-11T05:35:47;2.65;;;1.35;;
70320;SDS011;61127;55.826;37.046;2022-08-11T05:38:20;2.47;;;1.40;;
70320;SDS011;61127;55.826;37.046;2022-08-11T05:41:10;3.07;;;1.50;;
70320;SDS011;61127;55.826;37.046;2022-08-11T05:43:58;2.17;;;1.50;;
70320;SDS011;61127;55.826;37.046;2022-08-11T05:46:44;2.40;;;1.52;;
70320;SDS011;61127;55.826;37.046;2022-08-11T05:49:30;2.72;;;1.35;;
70320;SDS011;61127;55.826;37.046;2022-08-11T05:52:15;2.50;;;1.40;;
70320;SDS011;61127;55.826;37.046;2022-08-11T05:55:04;4.53;;;1.50;;
70320;SDS011;61127;55.826;37.046;2022-08-11T05:57:56;3.40;;;1.48;;
70320;SDS011;61127;55.826;37.046;2022-08-11T06:00:43;2.03;;;1.20;;
70320;SDS011;61127;55.826;37.046;2022-08-11T06:03:11;2.53;;;1.10;;
70320;SDS011;61127;55.826;37.046;2022-08-11T06:05:49;2.85;;;1.30;;
70320;SDS011;61127;55.826;37.046;2022-08-11T06:08:16;2.67;;;1.10;;
70320;SDS011;61127;55.826;37.046;2022-08-11T06:10:44;2.03;;;1.00;;
70320;SDS011;61127;55.826;37.046;2022-08-11T06:13:15;1.73;;;1.27;;
70320;SDS011;61127;55.826;37.046;2022-08-11T06:15:43;2.05;;;1.23;;
70320;SDS011;61127;55.826;37.046;2022-08-11T06:18:11;2.45;;;1.35;;
70320;SDS011;61127;55.826;37.046;2022-08-11T06:20:45;2.27;;;1.10;;
70320;SDS011;61127;55.826;37.046;2022-08-11T06:23:21;3.10;;;1.35;;
70320;SDS011;61127;55.826;37.046;2022-08-11T06:25:50;1.95;;;1.13;;
70320;SDS011;61127;55.826;37.046;2022-08-11T06:28:17;1.50;;;1.00;;
70320;SDS011;61127;55.826;37.046;2022-08-11T06:30:45;1.92;;;1.10;;
70320;SDS011;61127;55.826;37.046;2022-08-11T06:33:17;8.27;;;1.30;;
70320;SDS011;61127;55.826;37.046;2022-08-11T06:35:47;3.05;;;1.40;;
70320;SDS011;61127;55.826;37.046;2022-08-11T06:38:22;1.52;;;1.10;;
70320;SDS011;61127;55.826;37.046;2022-08-11T06:41:07;3.70;;;1.30;;
70320;SDS011;61127;55.826;37.046;2022-08-11T06:46:47;2.63;;;1.50;;
70320;SDS011;61127;55.826;37.046;2022-08-11T06:49:16;1.75;;;1.10;;
70320;SDS011;61127;55.826;37.046;2022-08-11T06:52:05;2.60;;;1.30;;
70320;SDS011;61127;55.826;37.046;2022-08-11T06:54:35;3.53;;;1.20;;
70320;SDS011;61127;55.826;37.046;2022-08-11T06:57:06;2.25;;;1.30;;
70320;SDS011;61127;55.826;37.046;2022-08-11T06:59:56;1.73;;;1.10;;
70320;SDS011;61127;55.826;37.046;2022-08-11T07:05:21;2.53;;;1.30;;
70320;SDS011;61127;55.826;37.046;2022-08-11T07:13:39;2.63;;;1.30;;
70320;SDS011;61127;55.826;37.046;2022-08-11T07:16:42;4.50;;;1.38;;
70320;SDS011;61127;55.826;37.046;2022-08-11T07:19:09;2.20;;;1.25;;
70320;SDS011;61127;55.826;37.046;2022-08-11T07:21:56;3.95;;;1.33;;
70320;SDS011;61127;55.826;37.046;2022-08-11T07:24:55;1.88;;;1.30;;
70320;SDS011;61127;55.826;37.046;2022-08-11T07:27:45;2.47;;;1.30;;
70320;SDS011;61127;55.826;37.046;2022-08-11T07:30:33;4.75;;;1.20;;
70320;SDS011;61127;55.826;37.046;2022-08-11T07:33:04;4.38;;;1.30;;
70320;SDS011;61127;55.826;37.046;2022-08-11T07:35:32;2.53;;;1.20;;
70320;SDS011;61127;55.826;37.046;2022-08-11T07:38:01;3.83;;;1.30;;
70320;SDS011;61127;55.826;37.046;2022-08-11T07:40:33;4.63;;;1.53;;
70320;SDS011;61127;55.826;37.046;2022-08-11T07:43:01;1.48;;;1.30;;
70320;SDS011;61127;55.826;37.046;2022-08-11T07:45:29;3.35;;;1.40;;
70320;SDS011;61127;55.826;37.046;2022-08-11T07:48:15;2.13;;;1.30;;
70320;SDS011;61127;55.826;37.046;2022-08-11T07:51:05;6.28;;;1.85;;
70320;SDS011;61127;55.826;37.046;2022-08-11T07:53:50;1.40;;;1.00;;
70320;SDS011;61127;55.826;37.046;2022-08-11T07:56:17;2.33;;;1.20;;
70320;SDS011;61127;55.826;37.046;2022-08-11T07:58:44;1.40;;;1.15;;
70320;SDS011;61127;55.826;37.046;2022-08-11T08:01:29;2.67;;;1.10;;
70320;SDS011;61127;55.826;37.046;2022-08-11T08:04:15;3.78;;;1.40;;
70320;SDS011;61127;55.826;37.046;2022-08-11T08:07:02;5.27;;;1.40;;
70320;SDS011;61127;55.826;37.046;2022-08-11T08:09:48;1.90;;;1.20;;
70320;SDS011;61127;55.826;37.046;2022-08-11T08:12:35;2.45;;;1.50;;
70320;SDS011;61127;55.826;37.046;2022-08-11T08:15:20;3.53;;;1.58;;
70320;SDS011;61127;55.826;37.046;2022-08-11T08:18:06;1.67;;;1.27;;
70320;SDS011;61127;55.826;37.046;2022-08-11T08:20:36;2.90;;;1.40;;
70320;SDS011;61127;55.826;37.046;2022-08-11T08:23:06;1.52;;;1.42;;
70320;SDS011;61127;55.826;37.046;2022-08-11T08:25:34;2.55;;;1.52;;
70320;SDS011;61127;55.826;37.046;2022-08-11T08:28:04;2.90;;;1.23;;
70320;SDS011;61127;55.826;37.046;2022-08-11T08:30:31;1.60;;;1.10;;
70320;SDS011;61127;55.826;37.046;2022-08-11T08:33:16;4.20;;;1.80;;
70320;SDS011;61127;55.826;37.046;2022-08-11T08:35:53;3.55;;;1.95;;
70320;SDS011;61127;55.826;37.046;2022-08-11T08:38:37;3.78;;;1.58;;
70320;SDS011;61127;55.826;37.046;2022-08-11T08:41:04;2.85;;;1.70;;
70320;SDS011;61127;55.826;37.046;2022-08-11T08:43:32;3.60;;;1.88;;
70320;SDS011;61127;55.826;37.046;2022-08-11T08:46:00;2.90;;;1.20;;
70320;SDS011;61127;55.826;37.046;2022-08-11T08:48:29;2.83;;;1.38;;
70320;SDS011;61127;55.826;37.046;2022-08-11T08:50:57;3.92;;;1.30;;
70320;SDS011;61127;55.826;37.046;2022-08-11T08:53:47;2.88;;;1.40;;
70320;SDS011;61127;55.826;37.046;2022-08-11T08:56:15;2.30;;;1.48;;
70320;SDS011;61127;55.826;37.046;2022-08-11T08:58:44;4.43;;;1.47;;
70320;SDS011;61127;55.826;37.046;2022-08-11T09:01:12;3.38;;;1.83;;
70320;SDS011;61127;55.826;37.046;2022-08-11T09:03:43;3.03;;;1.60;;
70320;SDS011;61127;55.826;37.046;2022-08-11T09:06:09;6.97;;;3.83;;
70320;SDS011;61127;55.826;37.046;2022-08-11T09:08:35;5.70;;;2.65;;
70320;SDS011;61127;55.826;37.046;2022-08-11T09:11:03;10.00;;;4.47;;
70320;SDS011;61127;55.826;37.046;2022-08-11T09:13:49;3.20;;;2.00;;
70320;SDS011;61127;55.826;37.046;2022-08-11T09:16:16;6.78;;;1.85;;
70320;SDS011;61127;55.826;37.046;2022-08-11T09:18:43;4.18;;;2.10;;
70320;SDS011;61127;55.826;37.046;2022-08-11T09:21:12;3.80;;;2.30;;
70320;SDS011;61127;55.826;37.046;2022-08-11T09:23:41;3.87;;;2.13;;
70320;SDS011;61127;55.826;37.046;2022-08-11T09:26:30;3.13;;;1.50;;
70320;SDS011;61127;55.826;37.046;2022-08-11T09:29:15;6.40;;;2.03;;
70320;SDS011;61127;55.826;37.046;2022-08-11T09:31:43;2.95;;;1.92;;
70320;SDS011;61127;55.826;37.046;2022-08-11T09:34:11;3.83;;;2.10;;
70320;SDS011;61127;55.826;37.046;2022-08-11T09:36:39;5.10;;;2.27;;
70320;SDS011;61127;55.826;37.046;2022-08-11T09:39:29;3.38;;;2.00;;
70320;SDS011;61127;55.826;37.046;2022-08-11T09:42:15;7.32;;;2.20;;
70320;SDS011;61127;55.826;37.046;2022-08-11T09:44:41;4.82;;;2.30;;
70320;SDS011;61127;55.826;37.046;2022-08-11T09:47:25;4.07;;;2.13;;
70320;SDS011;61127;55.826;37.046;2022-08-11T09:49:54;2.77;;;2.13;;
70320;SDS011;61127;55.826;37.046;2022-08-11T09:52:25;2.20;;;1.70;;
70320;SDS011;61127;55.826;37.046;2022-08-11T09:54:52;4.78;;;1.90;;
70320;SDS011;61127;55.826;37.046;2022-08-11T09:57:19;7.75;;;2.55;;
70320;SDS011;61127;55.826;37.046;2022-08-11T10:00:06;3.05;;;2.42;;
70320;SDS011;61127;55.826;37.046;2022-08-11T10:02:33;3.80;;;2.50;;
70320;SDS011;61127;55.826;37.046;2022-08-11T10:05:05;3.03;;;2.25;;
70320;SDS011;61127;55.826;37.046;2022-08-11T10:07:51;4.45;;;2.40;;
70320;SDS011;61127;55.826;37.046;2022-08-11T10:10:18;5.97;;;2.40;;
70320;SDS011;61127;55.826;37.046;2022-08-11T10:12:55;4.68;;;2.60;;
70320;SDS011;61127;55.826;37.046;2022-08-11T10:15:27;6.07;;;2.27;;
70320;SDS011;61127;55.826;37.046;2022-08-11T10:18:06;2.75;;;1.70;;
70320;SDS011;61127;55.826;37.046;2022-08-11T10:21:01;4.40;;;1.90;;
70320;SDS011;61127;55.826;37.046;2022-08-11T10:23:40;3.08;;;1.50;;
70320;SDS011;61127;55.826;37.046;2022-08-11T10:26:27;4.85;;;1.73;;
70320;SDS011;61127;55.826;37.046;2022-08-11T10:29:13;4.77;;;2.13;;
70320;SDS011;61127;55.826;37.046;2022-08-11T10:31:59;5.90;;;2.20;;
70320;SDS011;61127;55.826;37.046;2022-08-11T10:34:47;4.00;;;2.20;;
70320;SDS011;61127;55.826;37.046;2022-08-11T10:37:14;4.45;;;1.80;;
70320;SDS011;61127;55.826;37.046;2022-08-11T10:39:42;4.28;;;1.60;;
70320;SDS011;61127;55.826;37.046;2022-08-11T10:42:09;4.53;;;2.20;;
70320;SDS011;61127;55.826;37.046;2022-08-11T10:44:54;4.18;;;2.33;;
70320;SDS011;61127;55.826;37.046;2022-08-11T10:47:23;4.50;;;2.20;;
70320;SDS011;61127;55.826;37.046;2022-08-11T10:50:00;2.83;;;2.55;;
70320;SDS011;61127;55.826;37.046;2022-08-11T10:52:51;5.10;;;2.83;;
70320;SDS011;61127;55.826;37.046;2022-08-11T10:55:37;3.10;;;2.73;;
70320;SDS011;61127;55.826;37.046;2022-08-11T10:58:25;3.22;;;2.92;;
70320;SDS011;61127;55.826;37.046;2022-08-11T11:01:10;3.55;;;3.25;;
70320;SDS011;61127;55.826;37.046;2022-08-11T11:03:38;4.60;;;2.90;;
70320;SDS011;61127;55.826;37.046;2022-08-11T11:08:52;4.97;;;3.00;;
70320;SDS011;61127;55.826;37.046;2022-08-11T11:11:26;7.50;;;4.25;;
70320;SDS011;61127;55.826;37.046;2022-08-11T11:14:15;6.40;;;4.13;;
70320;SDS011;61127;55.826;37.046;2022-08-11T11:17:04;4.50;;;3.40;;
70320;SDS011;61127;55.826;37.046;2022-08-11T11:19:37;4.47;;;3.30;;
70320;SDS011;61127;55.826;37.046;2022-08-11T11:22:05;5.73;;;3.50;;
70320;SDS011;61127;55.826;37.046;2022-08-11T11:24:55;4.45;;;3.60;;
70320;SDS011;61127;55.826;37.046;2022-08-11T11:27:49;4.20;;;3.90;;
70320;SDS011;61127;55.826;37.046;2022-08-11T11:30:35;6.38;;;3.95;;
70320;SDS011;61127;55.826;37.046;2022-08-11T11:39:00;4.93;;;4.00;;
70320;SDS011;61127;55.826;37.046;2022-08-11T11:41:27;6.18;;;4.07;;
70320;SDS011;61127;55.826;37.046;2022-08-11T11:43:56;6.40;;;4.20;;
70320;SDS011;61127;55.826;37.046;2022-08-11T11:46:26;6.57;;;4.40;;
70320;SDS011;61127;55.826;37.046;2022-08-11T11:48:54;4.83;;;4.37;;
70320;SDS011;61127;55.826;37.046;2022-08-11T11:51:21;4.65;;;4.25;;
70320;SDS011;61127;55.826;37.046;2022-08-11T11:53:49;5.45;;;4.45;;
70320;SDS011;61127;55.826;37.046;2022-08-11T11:56:16;5.35;;;3.20;;
70320;SDS011;61127;55.826;37.046;2022-08-11T11:58:43;6.20;;;3.47;;
70320;SDS011;61127;55.826;37.046;2022-08-11T12:01:28;4.47;;;4.07;;
70320;SDS011;61127;55.826;37.046;2022-08-11T12:03:56;5.15;;;4.00;;
70320;SDS011;61127;55.826;37.046;2022-08-11T12:06:23;5.03;;;4.57;;
70320;SDS011;61127;55.826;37.046;2022-08-11T12:08:52;5.35;;;4.85;;
70320;SDS011;61127;55.826;37.046;2022-08-11T12:11:21;7.85;;;5.00;;
70320;SDS011;61127;55.826;37.046;2022-08-11T12:14:11;5.90;;;5.40;;
70320;SDS011;61127;55.826;37.046;2022-08-11T12:16:42;6.68;;;5.18;;
70320;SDS011;61127;55.826;37.046;2022-08-11T12:19:18;5.22;;;3.58;;
70320;SDS011;61127;55.826;37.046;2022-08-11T12:21:49;5.82;;;3.50;;
70320;SDS011;61127;55.826;37.046;2022-08-11T12:24:35;4.03;;;3.72;;
70320;SDS011;61127;55.826;37.046;2022-08-11T12:27:21;5.43;;;4.20;;
70320;SDS011;61127;55.826;37.046;2022-08-11T12:29:51;5.20;;;4.70;;
70320;SDS011;61127;55.826;37.046;2022-08-11T12:32:22;6.40;;;5.07;;
70320;SDS011;61127;55.826;37.046;2022-08-11T12:34:50;10.52;;;7.95;;
70320;SDS011;61127;55.826;37.046;2022-08-11T12:37:19;6.47;;;4.82;;
70320;SDS011;61127;55.826;37.046;2022-08-11T12:39:49;4.67;;;4.30;;
70320;SDS011;61127;55.826;37.046;2022-08-11T12:42:37;4.85;;;4.38;;
70320;SDS011;61127;55.826;37.046;2022-08-11T12:45:23;6.32;;;4.70;;
70320;SDS011;61127;55.826;37.046;2022-08-11T12:50:46;6.15;;;3.97;;
70320;SDS011;61127;55.826;37.046;2022-08-11T12:53:34;4.10;;;3.57;;
70320;SDS011;61127;55.826;37.046;2022-08-11T12:56:05;4.20;;;3.80;;
70320;SDS011;61127;55.826;37.046;2022-08-11T12:58:51;4.53;;;4.10;;
70320;SDS011;61127;55.826;37.046;2022-08-11T13:01:17;4.45;;;4.05;;
70320;SDS011;61127;55.826;37.046;2022-08-11T13:04:03;4.10;;;3.80;;
70320;SDS011;61127;55.826;37.046;2022-08-11T13:06:48;4.07;;;3.77;;
70320;SDS011;61127;55.826;37.046;2022-08-11T13:09:15;4.10;;;3.70;;
70320;SDS011;61127;55.826;37.046;2022-08-11T13:11:42;5.88;;;4.35;;
70320;SDS011;61127;55.826;37.046;2022-08-11T13:14:29;4.13;;;3.83;;
70320;SDS011;61127;55.826;37.046;2022-08-11T13:16:58;5.20;;;4.22;;
70320;SDS011;61127;55.826;37.046;2022-08-11T13:19:43;4.53;;;3.73;;
70320;SDS011;61127;55.826;37.046;2022-08-11T13:22:10;5.70;;;4.05;;
70320;SDS011;61127;55.826;37.046;2022-08-11T13:24:38;4.30;;;4.00;;
70320;SDS011;61127;55.826;37.046;2022-08-11T13:27:05;6.95;;;4.20;;
70320;SDS011;61127;55.826;37.046;2022-08-11T13:29:31;4.57;;;3.83;;
70320;SDS011;61127;55.826;37.046;2022-08-11T13:32:00;4.50;;;3.30;;
70320;SDS011;61127;55.826;37.046;2022-08-11T13:34:27;3.40;;;3.10;;
70320;SDS011;61127;55.826;37.046;2022-08-11T13:37:00;3.97;;;3.25;;
70320;SDS011;61127;55.826;37.046;2022-08-11T13:39:30;4.10;;;3.25;;
70320;SDS011;61127;55.826;37.046;2022-08-11T13:41:58;3.85;;;3.53;;
70320;SDS011;61127;55.826;37.046;2022-08-11T13:44:26;3.50;;;3.20;;
70320;SDS011;61127;55.826;37.046;2022-08-11T13:46:55;4.25;;;3.28;;
70320;SDS011;61127;55.826;37.046;2022-08-11T13:49:26;4.85;;;2.70;;
70320;SDS011;61127;55.826;37.046;2022-08-11T13:51:54;3.60;;;2.70;;
70320;SDS011;61127;55.826;37.046;2022-08-11T13:54:22;6.00;;;2.70;;
70320;SDS011;61127;55.826;37.046;2022-08-11T13:56:53;2.60;;;2.40;;
70320;SDS011;61127;55.826;37.046;2022-08-11T13:59:21;2.83;;;2.50;;
70320;SDS011;61127;55.826;37.046;2022-08-11T14:01:50;3.33;;;2.30;;
70320;SDS011;61127;55.826;37.046;2022-08-11T14:04:24;5.53;;;2.70;;
70320;SDS011;61127;55.826;37.046;2022-08-11T14:06:55;3.35;;;2.75;;
70320;SDS011;61127;55.826;37.046;2022-08-11T14:09:26;5.23;;;2.73;;
70320;SDS011;61127;55.826;37.046;2022-08-11T14:11:56;5.72;;;2.42;;
70320;SDS011;61127;55.826;37.046;2022-08-11T14:14:43;2.72;;;2.38;;
70320;SDS011;61127;55.826;37.046;2022-08-11T14:17:14;4.95;;;2.53;;
70320;SDS011;61127;55.826;37.046;2022-08-11T14:19:43;5.65;;;2.25;;
70320;SDS011;61127;55.826;37.046;2022-08-11T14:22:12;2.43;;;2.10;;
70320;SDS011;61127;55.826;37.046;2022-08-11T14:24:42;4.10;;;1.90;;
70320;SDS011;61127;55.826;37.046;2022-08-11T14:27:16;3.60;;;1.90;;
70320;SDS011;61127;55.826;37.046;2022-08-11T14:29:42;3.05;;;1.83;;
70320;SDS011;61127;55.826;37.046;2022-08-11T14:32:11;2.78;;;1.98;;
70320;SDS011;61127;55.826;37.046;2022-08-11T14:34:39;4.90;;;1.90;;
70320;SDS011;61127;55.826;37.046;2022-08-11T14:37:12;2.75;;;1.60;;
70320;SDS011;61127;55.826;37.046;2022-08-11T14:39:47;3.75;;;1.80;;
70320;SDS011;61127;55.826;37.046;2022-08-11T14:42:17;4.40;;;1.88;;
70320;SDS011;61127;55.826;37.046;2022-08-11T14:45:04;4.82;;;1.70;;
70320;SDS011;61127;55.826;37.046;2022-08-11T14:47:55;3.17;;;1.50;;
70320;SDS011;61127;55.826;37.046;2022-08-11T14:50:26;2.60;;;1.60;;
70320;SDS011;61127;55.826;37.046;2022-08-11T14:53:04;1.90;;;1.48;;
70320;SDS011;61127;55.826;37.046;2022-08-11T14:55:38;5.10;;;1.70;;
70320;SDS011;61127;55.826;37.046;2022-08-11T14:58:27;2.30;;;1.63;;
70320;SDS011;61127;55.826;37.046;2022-08-11T15:00:55;6.33;;;1.50;;
70320;SDS011;61127;55.826;37.046;2022-08-11T15:03:24;5.25;;;1.45;;
70320;SDS011;61127;55.826;37.046;2022-08-11T15:05:53;4.82;;;1.50;;
70320;SDS011;61127;55.826;37.046;2022-08-11T15:08:21;2.92;;;1.40;;
70320;SDS011;61127;55.826;37.046;2022-08-11T15:11:09;7.78;;;1.95;;
70320;SDS011;61127;55.826;37.046;2022-08-11T15:13:59;6.30;;;1.70;;
70320;SDS011;61127;55.826;37.046;2022-08-11T15:16:26;2.85;;;1.40;;
70320;SDS011;61127;55.826;37.046;2022-08-11T15:19:12;3.10;;;1.48;;
70320;SDS011;61127;55.826;37.046;2022-08-11T15:21:40;3.47;;;1.50;;
70320;SDS011;61127;55.826;37.046;2022-08-11T15:24:25;3.55;;;1.50;;
70320;SDS011;61127;55.826;37.046;2022-08-11T15:26:51;4.33;;;1.60;;
70320;SDS011;61127;55.826;37.046;2022-08-11T15:29:37;1.98;;;1.60;;
70320;SDS011;61127;55.826;37.046;2022-08-11T15:32:24;2.85;;;1.48;;
70320;SDS011;61127;55.826;37.046;2022-08-11T15:35:09;3.25;;;1.70;;
70320;SDS011;61127;55.826;37.046;2022-08-11T15:37:55;5.32;;;1.60;;
70320;SDS011;61127;55.826;37.046;2022-08-11T15:40:30;1.87;;;1.40;;
70320;SDS011;61127;55.826;37.046;2022-08-11T15:43:24;3.05;;;1.60;;
70320;SDS011;61127;55.826;37.046;2022-08-11T15:46:16;2.15;;;1.75;;
70320;SDS011;61127;55.826;37.046;2022-08-11T15:48:49;4.22;;;2.00;;
70320;SDS011;61127;55.826;37.046;2022-08-11T15:54:13;3.77;;;1.50;;
70320;SDS011;61127;55.826;37.046;2022-08-11T15:56:42;2.22;;;1.60;;
70320;SDS011;61127;55.826;37.046;2022-08-11T15:59:11;5.00;;;1.70;;
70320;SDS011;61127;55.826;37.046;2022-08-11T16:01:58;3.67;;;1.65;;
70320;SDS011;61127;55.826;37.046;2022-08-11T16:04:55;2.28;;;1.42;;
70320;SDS011;61127;55.826;37.046;2022-08-11T16:07:25;5.50;;;1.60;;
70320;SDS011;61127;55.826;37.046;2022-08-11T16:09:55;2.53;;;1.50;;
70320;SDS011;61127;55.826;37.046;2022-08-11T16:12:26;3.83;;;1.80;;
70320;SDS011;61127;55.826;37.046;2022-08-11T16:14:55;4.63;;;1.60;;
70320;SDS011;61127;55.826;37.046;2022-08-11T16:17:44;4.53;;;1.90;;
70320;SDS011;61127;55.826;37.046;2022-08-11T16:20:15;3.67;;;1.77;;
70320;SDS011;61127;55.826;37.046;2022-08-11T16:22:45;3.38;;;1.70;;
70320;SDS011;61127;55.826;37.046;2022-08-11T16:25:18;2.28;;;1.70;;
70320;SDS011;61127;55.826;37.046;2022-08-11T16:27:52;2.40;;;1.90;;
70320;SDS011;61127;55.826;37.046;2022-08-11T16:30:32;5.15;;;2.03;;
70320;SDS011;61127;55.826;37.046;2022-08-11T16:33:00;3.17;;;2.00;;
70320;SDS011;61127;55.826;37.046;2022-08-11T16:35:31;4.13;;;2.30;;
70320;SDS011;61127;55.826;37.046;2022-08-11T16:38:20;4.85;;;2.70;;
70320;SDS011;61127;55.826;37.046;2022-08-11T16:41:01;7.35;;;3.08;;
70320;SDS011;61127;55.826;37.046;2022-08-11T16:43:38;4.43;;;2.88;;
70320;SDS011;61127;55.826;37.046;2022-08-11T16:46:24;6.23;;;3.27;;
70320;SDS011;61127;55.826;37.046;2022-08-11T16:49:20;6.05;;;3.50;;
70320;SDS011;61127;55.826;37.046;2022-08-11T16:51:50;5.50;;;3.38;;
70320;SDS011;61127;55.826;37.046;2022-08-11T16:54:17;5.03;;;3.00;;
70320;SDS011;61127;55.826;37.046;2022-08-11T16:56:48;6.28;;;2.92;;
70320;SDS011;61127;55.826;37.046;2022-08-11T16:59:18;6.53;;;2.87;;
70320;SDS011;61127;55.826;37.046;2022-08-11T17:07:33;7.03;;;3.00;;
70320;SDS011;61127;55.826;37.046;2022-08-11T17:10:35;5.53;;;2.92;;
70320;SDS011;61127;55.826;37.046;2022-08-11T17:13:32;6.27;;;3.03;;
70320;SDS011;61127;55.826;37.046;2022-08-11T17:16:02;7.10;;;2.70;;
70320;SDS011;61127;55.826;37.046;2022-08-11T17:18:34;6.47;;;3.15;;
70320;SDS011;61127;55.826;37.046;2022-08-11T17:21:18;9.55;;;3.97;;
70320;SDS011;61127;55.826;37.046;2022-08-11T17:23:59;11.98;;;5.38;;
70320;SDS011;61127;55.826;37.046;2022-08-11T17:26:40;9.43;;;4.60;;
70320;SDS011;61127;55.826;37.046;2022-08-11T17:29:24;12.77;;;4.60;;
70320;SDS011;61127;55.826;37.046;2022-08-11T17:31:51;10.15;;;4.88;;
70320;SDS011;61127;55.826;37.046;2022-08-11T17:34:38;9.93;;;4.47;;
70320;SDS011;61127;55.826;37.046;2022-08-11T17:37:25;12.15;;;4.43;;
70320;SDS011;61127;55.826;37.046;2022-08-11T17:39:52;9.43;;;4.30;;
70320;SDS011;61127;55.826;37.046;2022-08-11T17:42:20;9.18;;;4.55;;
70320;SDS011;61127;55.826;37.046;2022-08-11T17:45:07;9.32;;;4.80;;
70320;SDS011;61127;55.826;37.046;2022-08-11T17:47:53;11.18;;;4.90;;
70320;SDS011;61127;55.826;37.046;2022-08-11T17:50:39;8.43;;;4.80;;
70320;SDS011;61127;55.826;37.046;2022-08-11T17:53:08;9.27;;;5.33;;
70320;SDS011;61127;55.826;37.046;2022-08-11T17:55:54;10.07;;;5.85;;
70320;SDS011;61127;55.826;37.046;2022-08-11T17:58:39;9.15;;;5.80;;
70320;SDS011;61127;55.826;37.046;2022-08-11T18:01:45;13.32;;;8.75;;
70320;SDS011;61127;55.826;37.046;2022-08-11T18:04:13;13.88;;;9.95;;
70320;SDS011;61127;55.826;37.046;2022-08-11T18:06:40;11.03;;;8.30;;
70320;SDS011;61127;55.826;37.046;2022-08-11T18:09:09;12.07;;;7.82;;
70320;SDS011;61127;55.826;37.046;2022-08-11T18:11:57;10.95;;;7.53;;
70320;SDS011;61127;55.826;37.046;2022-08-11T18:14:45;12.73;;;6.40;;
70320;SDS011;61127;55.826;37.046;2022-08-11T18:17:31;9.63;;;5.70;;
70320;SDS011;61127;55.826;37.046;2022-08-11T18:20:17;7.33;;;4.70;;
70320;SDS011;61127;55.826;37.046;2022-08-11T18:23:11;8.55;;;5.03;;
70320;SDS011;61127;55.826;37.046;2022-08-11T18:26:01;9.25;;;5.28;;
70320;SDS011;61127;55.826;37.046;2022-08-11T18:28:49;8.27;;;4.75;;
70320;SDS011;61127;55.826;37.046;2022-08-11T18:31:40;8.48;;;4.90;;
70320;SDS011;61127;55.826;37.046;2022-08-11T18:34:34;9.13;;;4.77;;
70320;SDS011;61127;55.826;37.046;2022-08-11T18:37:25;7.70;;;4.53;;
70320;SDS011;61127;55.826;37.046;2022-08-11T18:40:15;10.20;;;4.20;;
70320;SDS011;61127;55.826;37.046;2022-08-11T18:43:06;5.93;;;3.70;;
70320;SDS011;61127;55.826;37.046;2022-08-11T18:45:56;6.50;;;4.03;;
70320;SDS011;61127;55.826;37.046;2022-08-11T18:48:47;7.27;;;4.20;;
70320;SDS011;61127;55.826;37.046;2022-08-11T18:51:35;7.85;;;4.15;;